Time;durP1;ratioP1;P1;durP2;ratioP2;P2;SDS_P1;SDS_P2;PMS_P1;PMS_P2;Temp;Humidity;BMP_temperature;BMP_pressure;BME280_temperature;BME280_humidity;BME280_pressure;Samples;Min_cycle;Max_cycle;Signal;HPM_P1;HPM_P2
2023/04/04 00:01:02;;;;;;;15.00;11.30;;;;;;;;;;5112140;28;20316;-80
2023/04/04 00:03:29;;;;;;;15.07;11.20;;;;;;;;;;5111131;28;20289;-78
2023/04/04 00:05:57;;;;;;;17.80;11.73;;;;;;;;;;5111339;28;20233;-79
2023/04/04 00:08:24;;;;;;;14.87;11.53;;;;;;;;;;5111890;28;20293;-79
2023/04/04 00:10:57;;;;;;;16.33;11.37;;;;;;;;;;5111755;28;20198;-79
2023/04/04 00:13:25;;;;;;;16.80;11.23;;;;;;;;;;5115679;28;20681;-79
2023/04/04 00:15:52;;;;;;;14.83;11.00;;;;;;;;;;5115543;28;20202;-79
2023/04/04 00:18:19;;;;;;;14.83;11.13;;;;;;;;;;5115743;28;20194;-79
2023/04/04 00:20:47;;;;;;;16.33;11.17;;;;;;;;;;5115792;28;20225;-79
2023/04/04 00:23:14;;;;;;;15.87;11.07;;;;;;;;;;5115312;28;20281;-79
2023/04/04 00:25:41;;;;;;;14.00;10.30;;;;;;;;;;5115011;28;20666;-78
2023/04/04 00:28:09;;;;;;;15.27;11.40;;;;;;;;;;5115705;28;20222;-79
2023/04/04 00:30:37;;;;;;;14.17;10.93;;;;;;;;;;5115245;28;20201;-79
2023/04/04 00:33:05;;;;;;;13.77;10.43;;;;;;;;;;5115488;28;20284;-79
2023/04/04 00:35:32;;;;;;;12.37;9.57;;;;;;;;;;5115151;28;20689;-79
2023/04/04 00:37:59;;;;;;;15.00;10.63;;;;;;;;;;5115418;28;20195;-79
2023/04/04 00:40:26;;;;;;;13.20;9.67;;;;;;;;;;5115320;28;20317;-79
2023/04/04 00:42:54;;;;;;;15.43;10.50;;;;;;;;;;5115002;28;20241;-80
2023/04/04 00:45:22;;;;;;;11.77;9.60;;;;;;;;;;5114889;28;20193;-79
2023/04/04 00:47:49;;;;;;;12.87;10.00;;;;;;;;;;5114901;28;20309;-79
2023/04/04 00:50:17;;;;;;;13.83;10.03;;;;;;;;;;5114918;28;20198;-79
2023/04/04 00:52:44;;;;;;;12.73;9.23;;;;;;;;;;5115354;28;20198;-79
2023/04/04 00:55:11;;;;;;;13.73;9.37;;;;;;;;;;5114626;28;20217;-79
2023/04/04 00:57:38;;;;;;;14.57;10.47;;;;;;;;;;5115386;28;20226;-78
2023/04/04 01:00:06;;;;;;;13.60;9.53;;;;;;;;;;5114767;28;20312;-79
2023/04/04 01:02:36;;;;;;;13.43;9.63;;;;;;;;;;5114843;28;20251;-79
2023/04/04 01:05:03;;;;;;;12.07;9.17;;;;;;;;;;5114520;28;20612;-79
2023/04/04 01:07:31;;;;;;;13.63;10.10;;;;;;;;;;5114806;28;20217;-80
2023/04/04 01:09:58;;;;;;;12.53;9.83;;;;;;;;;;5114524;28;20304;-80
2023/04/04 01:12:25;;;;;;;12.53;10.03;;;;;;;;;;5114868;28;20233;-79
2023/04/04 01:14:53;;;;;;;12.17;9.67;;;;;;;;;;5114095;28;20201;-80
2023/04/04 01:17:20;;;;;;;14.70;9.60;;;;;;;;;;5114222;28;20725;-81
2023/04/04 01:19:54;;;;;;;13.43;10.17;;;;;;;;;;5114688;28;20203;-79
2023/04/04 01:22:22;;;;;;;12.93;10.17;;;;;;;;;;5114354;28;20204;-79
2023/04/04 01:24:49;;;;;;;13.77;9.80;;;;;;;;;;5113407;28;20718;-79
2023/04/04 01:27:18;;;;;;;12.53;9.63;;;;;;;;;;5114367;28;20190;-82
2023/04/04 01:29:45;;;;;;;11.97;9.50;;;;;;;;;;5114388;28;20296;-80
2023/04/04 01:32:14;;;;;;;11.63;9.53;;;;;;;;;;5114438;28;20194;-80
2023/04/04 01:34:44;;;;;;;12.47;9.70;;;;;;;;;;5114120;28;20205;-79
2023/04/04 01:37:12;;;;;;;12.60;9.60;;;;;;;;;;5114014;28;20211;-79
2023/04/04 01:39:43;;;;;;;11.50;9.23;;;;;;;;;;5114031;28;20749;-79
2023/04/04 01:42:12;;;;;;;14.00;9.63;;;;;;;;;;5114200;28;20257;-79
2023/04/04 01:44:41;;;;;;;11.20;9.37;;;;;;;;;;5113688;28;20204;-80
2023/04/04 01:47:08;;;;;;;14.87;9.40;;;;;;;;;;5113699;28;20236;-80
2023/04/04 01:49:35;;;;;;;14.40;9.80;;;;;;;;;;5114098;28;20300;-80
2023/04/04 01:52:05;;;;;;;13.60;9.60;;;;;;;;;;5113681;28;20193;-80
2023/04/04 01:54:34;;;;;;;11.77;9.47;;;;;;;;;;5105365;28;20202;-80
2023/04/04 01:57:01;;;;;;;12.67;9.23;;;;;;;;;;5097515;28;20239;-80
2023/04/04 01:59:29;;;;;;;12.17;9.93;;;;;;;;;;5092813;28;20288;-78
2023/04/04 02:01:57;;;;;;;13.27;9.73;;;;;;;;;;5093088;28;20233;-79
2023/04/04 02:04:25;;;;;;;11.87;9.00;;;;;;;;;;5093378;28;20213;-80
2023/04/04 02:06:55;;;;;;;13.00;9.80;;;;;;;;;;5093091;28;20198;-81
2023/04/04 02:09:22;;;;;;;13.47;9.40;;;;;;;;;;5093301;28;20211;-80
2023/04/04 02:11:50;;;;;;;11.93;9.23;;;;;;;;;;5092123;28;20206;-80
2023/04/04 02:14:18;;;;;;;14.00;10.23;;;;;;;;;;5111461;28;20228;-80
2023/04/04 02:16:45;;;;;;;15.50;9.83;;;;;;;;;;5113135;28;20197;-80
2023/04/04 02:19:14;;;;;;;12.23;9.53;;;;;;;;;;5113031;28;20224;-81
2023/04/04 02:21:41;;;;;;;13.57;9.80;;;;;;;;;;5113565;28;20599;-78
2023/04/04 02:24:08;;;;;;;13.60;9.50;;;;;;;;;;5113419;28;20247;-80
2023/04/04 02:26:35;;;;;;;12.40;9.70;;;;;;;;;;5112679;28;20293;-79
2023/04/04 02:29:03;;;;;;;11.57;9.37;;;;;;;;;;5112496;28;20243;-80
2023/04/04 02:31:30;;;;;;;12.30;9.67;;;;;;;;;;5112470;28;20336;-79
2023/04/04 02:33:57;;;;;;;13.10;9.63;;;;;;;;;;5112446;28;20237;-80
2023/04/04 02:36:26;;;;;;;11.97;8.97;;;;;;;;;;5112904;28;20193;-80
2023/04/04 02:38:53;;;;;;;11.33;9.13;;;;;;;;;;5112831;28;20197;-79
2023/04/04 02:41:20;;;;;;;14.73;9.90;;;;;;;;;;5112083;28;20259;-80
2023/04/04 02:43:48;;;;;;;11.57;9.60;;;;;;;;;;5112500;28;20638;-79
2023/04/04 02:46:15;;;;;;;13.70;9.67;;;;;;;;;;5113137;28;20248;-80
2023/04/04 02:48:42;;;;;;;13.30;9.87;;;;;;;;;;5112424;28;20312;-78
2023/04/04 02:51:10;;;;;;;14.10;9.53;;;;;;;;;;5112368;28;20223;-80
2023/04/04 02:53:38;;;;;;;12.97;9.70;;;;;;;;;;5112534;28;20288;-80
2023/04/04 02:56:06;;;;;;;15.87;9.90;;;;;;;;;;5112309;28;20293;-80
2023/04/04 02:58:33;;;;;;;15.30;9.77;;;;;;;;;;5112332;28;20207;-80
2023/04/04 03:01:00;;;;;;;14.30;9.07;;;;;;;;;;5112044;28;20307;-80
2023/04/04 03:03:27;;;;;;;13.50;9.80;;;;;;;;;;5113056;28;20232;-81
2023/04/04 03:05:54;;;;;;;14.80;9.80;;;;;;;;;;5112429;28;20197;-79
2023/04/04 03:08:22;;;;;;;13.57;10.43;;;;;;;;;;5112338;28;20204;-80
2023/04/04 03:10:50;;;;;;;15.23;10.50;;;;;;;;;;5112448;28;20203;-80
2023/04/04 03:13:18;;;;;;;14.27;10.20;;;;;;;;;;5112268;28;20235;-79
2023/04/04 03:15:45;;;;;;;13.73;10.47;;;;;;;;;;5112577;28;20227;-80
2023/04/04 03:18:12;;;;;;;17.10;10.60;;;;;;;;;;5112643;28;20279;-80
2023/04/04 03:20:40;;;;;;;13.53;9.70;;;;;;;;;;5112334;28;20283;-80
2023/04/04 03:23:07;;;;;;;14.10;10.37;;;;;;;;;;5112168;28;20233;-80
2023/04/04 03:25:34;;;;;;;14.80;9.83;;;;;;;;;;5112072;28;20232;-79
2023/04/04 03:28:10;;;;;;;12.37;10.03;;;;;;;;;;5112553;28;20247;-79
2023/04/04 03:30:37;;;;;;;13.60;10.10;;;;;;;;;;5112165;28;20199;-79
2023/04/04 03:33:06;;;;;;;14.93;9.80;;;;;;;;;;5111589;28;20200;-79
2023/04/04 03:35:33;;;;;;;16.33;10.00;;;;;;;;;;5111695;28;20194;-79
2023/04/04 03:38:02;;;;;;;14.90;10.03;;;;;;;;;;5111900;28;20287;-79
2023/04/04 03:40:29;;;;;;;15.27;9.80;;;;;;;;;;5111396;28;20204;-79
2023/04/04 03:42:57;;;;;;;15.07;10.47;;;;;;;;;;5112205;28;20228;-79
2023/04/04 03:45:26;;;;;;;13.87;10.03;;;;;;;;;;5111533;28;20255;-78
2023/04/04 03:47:53;;;;;;;15.37;10.20;;;;;;;;;;5110849;28;20319;-80
2023/04/04 03:50:20;;;;;;;13.83;10.20;;;;;;;;;;5111620;28;20326;-79
2023/04/04 03:52:47;;;;;;;14.80;9.70;;;;;;;;;;5111927;28;20207;-79
2023/04/04 03:55:15;;;;;;;12.80;9.93;;;;;;;;;;5111581;28;20221;-80
2023/04/04 03:57:42;;;;;;;13.13;9.73;;;;;;;;;;5111964;28;20200;-79
2023/04/04 04:00:09;;;;;;;14.97;10.33;;;;;;;;;;5111406;28;20294;-79
2023/04/04 04:02:38;;;;;;;14.93;10.23;;;;;;;;;;5111349;28;20758;-79
2023/04/04 04:05:05;;;;;;;16.17;10.33;;;;;;;;;;5111125;28;20290;-79
2023/04/04 04:07:33;;;;;;;15.17;10.33;;;;;;;;;;5111697;28;20896;-81
2023/04/04 04:10:00;;;;;;;15.50;11.27;;;;;;;;;;5111307;28;20312;-80
2023/04/04 04:12:27;;;;;;;14.97;9.90;;;;;;;;;;5108890;28;20197;-80
2023/04/04 04:14:55;;;;;;;13.50;10.03;;;;;;;;;;5090980;28;20710;-80
2023/04/04 04:17:22;;;;;;;13.57;9.97;;;;;;;;;;5091383;28;20196;-80
2023/04/04 04:19:50;;;;;;;13.73;9.87;;;;;;;;;;5090562;28;20234;-79
2023/04/04 04:22:18;;;;;;;14.27;10.47;;;;;;;;;;5090902;28;20251;-80
2023/04/04 04:24:45;;;;;;;14.73;10.63;;;;;;;;;;5090989;28;20227;-80
2023/04/04 04:27:12;;;;;;;17.77;11.40;;;;;;;;;;5091095;28;20222;-80
2023/04/04 04:29:39;;;;;;;16.10;11.00;;;;;;;;;;5091163;28;20230;-79
2023/04/04 04:32:06;;;;;;;17.07;11.40;;;;;;;;;;5090583;28;20277;-79
2023/04/04 04:34:33;;;;;;;15.40;11.37;;;;;;;;;;5091194;28;20740;-80
2023/04/04 04:37:02;;;;;;;14.67;11.17;;;;;;;;;;5090468;28;20221;-80
2023/04/04 04:39:29;;;;;;;18.07;11.10;;;;;;;;;;5091002;28;20293;-79
2023/04/04 04:41:56;;;;;;;16.50;10.70;;;;;;;;;;5090733;28;20310;-79
2023/04/04 04:44:23;;;;;;;18.13;10.67;;;;;;;;;;5090611;28;20227;-78
2023/04/04 04:46:51;;;;;;;16.80;11.40;;;;;;;;;;5090605;28;20611;-78
2023/04/04 04:49:18;;;;;;;17.27;10.83;;;;;;;;;;5090143;28;20306;-79
2023/04/04 04:51:45;;;;;;;16.20;10.93;;;;;;;;;;5090397;28;20214;-78
2023/04/04 04:54:13;;;;;;;19.80;13.27;;;;;;;;;;5090439;28;20231;-79
2023/04/04 04:56:41;;;;;;;26.50;16.63;;;;;;;;;;5090741;28;20282;-80
2023/04/04 04:59:10;;;;;;;21.27;13.70;;;;;;;;;;5093193;28;20194;-79
2023/04/04 05:01:37;;;;;;;16.87;11.10;;;;;;;;;;5094680;28;20580;-79
2023/04/04 05:04:05;;;;;;;18.37;11.80;;;;;;;;;;5094318;28;20195;-80
2023/04/04 05:06:32;;;;;;;16.40;11.03;;;;;;;;;;5093585;28;20270;-77
2023/04/04 05:08:59;;;;;;;18.57;10.60;;;;;;;;;;5094240;28;20228;-79
2023/04/04 05:14:31;;;;;;;23.67;12.30;;;;;;;;;;5113721;28;20192;-77
2023/04/04 05:16:58;;;;;;;18.93;12.57;;;;;;;;;;5114425;28;20678;-78
2023/04/04 05:19:26;;;;;;;22.57;14.87;;;;;;;;;;5114381;28;20289;-78
2023/04/04 05:21:53;;;;;;;56.87;32.63;;;;;;;;;;5114319;28;20451;-78
2023/04/04 05:24:21;;;;;;;84.93;49.53;;;;;;;;;;5114485;28;20194;-80
2023/04/04 05:26:48;;;;;;;66.10;43.20;;;;;;;;;;5114102;28;20615;-79
2023/04/04 05:29:16;;;;;;;40.90;31.43;;;;;;;;;;5114344;28;20749;-79
2023/04/04 05:31:44;;;;;;;36.50;26.63;;;;;;;;;;5114063;28;20229;-79
2023/04/04 05:34:11;;;;;;;40.33;28.57;;;;;;;;;;5114298;28;20236;-78
2023/04/04 05:36:39;;;;;;;56.73;43.03;;;;;;;;;;5113775;28;20193;-79
2023/04/04 05:39:06;;;;;;;145.73;103.03;;;;;;;;;;5114309;28;20251;-80
2023/04/04 05:41:33;;;;;;;395.37;261.50;;;;;;;;;;5113962;28;20225;-80
2023/04/04 05:44:01;;;;;;;541.30;368.90;;;;;;;;;;5112080;28;20208;-78
2023/04/04 05:46:28;;;;;;;218.80;133.13;;;;;;;;;;5109360;28;20834;-79
2023/04/04 05:48:57;;;;;;;142.93;88.17;;;;;;;;;;5109399;28;20984;-79
2023/04/04 05:51:24;;;;;;;117.80;72.83;;;;;;;;;;5112665;28;20282;-79
2023/04/04 05:53:51;;;;;;;382.00;227.43;;;;;;;;;;5112883;28;20606;-79
2023/04/04 05:56:18;;;;;;;212.27;128.67;;;;;;;;;;5113485;28;20621;-79
2023/04/04 05:58:46;;;;;;;328.77;208.13;;;;;;;;;;5113424;27;20217;-79
2023/04/04 06:01:13;;;;;;;284.07;173.67;;;;;;;;;;5106163;28;20212;-78
2023/04/04 06:03:40;;;;;;;78.47;53.27;;;;;;;;;;5119435;27;20245;-78
2023/04/04 06:06:09;;;;;;;53.43;36.70;;;;;;;;;;5129489;27;20201;-79
2023/04/04 06:08:36;;;;;;;34.30;24.10;;;;;;;;;;5116212;27;20283;-79
2023/04/04 06:11:03;;;;;;;35.40;22.03;;;;;;;;;;5127073;27;20284;-79
2023/04/04 06:13:30;;;;;;;29.43;20.50;;;;;;;;;;5113268;28;20240;-79
2023/04/04 06:15:57;;;;;;;25.00;17.33;;;;;;;;;;5120963;27;20705;-78
2023/04/04 06:18:25;;;;;;;20.13;14.07;;;;;;;;;;5116561;27;20284;-79
2023/04/04 06:20:52;;;;;;;17.23;12.17;;;;;;;;;;5130278;27;20197;-79
2023/04/04 06:23:20;;;;;;;15.80;11.50;;;;;;;;;;5115251;27;20777;-77
2023/04/04 06:25:48;;;;;;;15.67;11.47;;;;;;;;;;5123509;27;20203;-78
2023/04/04 06:28:16;;;;;;;15.57;11.63;;;;;;;;;;5112891;28;20201;-79
2023/04/04 06:30:44;;;;;;;17.03;11.63;;;;;;;;;;5114013;27;20205;-79
2023/04/04 06:33:11;;;;;;;16.53;10.73;;;;;;;;;;5126192;27;20193;-79
2023/04/04 06:35:38;;;;;;;14.90;11.03;;;;;;;;;;5124565;27;20189;-79
2023/04/04 06:38:05;;;;;;;16.30;10.27;;;;;;;;;;5121122;27;20251;-79
2023/04/04 06:40:34;;;;;;;15.10;10.10;;;;;;;;;;5123843;27;20290;-79
2023/04/04 06:43:01;;;;;;;13.27;9.80;;;;;;;;;;5096395;28;20257;-79
2023/04/04 06:45:31;;;;;;;13.40;9.70;;;;;;;;;;5120081;27;20230;-79
2023/04/04 06:47:58;;;;;;;12.37;9.73;;;;;;;;;;5120667;27;20224;-77
2023/04/04 06:50:26;;;;;;;12.30;8.90;;;;;;;;;;5113213;27;20198;-78
2023/04/04 06:52:54;;;;;;;10.33;8.73;;;;;;;;;;5116012;27;20193;-79
2023/04/04 06:55:22;;;;;;;10.90;8.73;;;;;;;;;;5120272;27;20211;-78
2023/04/04 06:57:50;;;;;;;10.17;8.30;;;;;;;;;;5112389;28;20698;-78
2023/04/04 07:00:18;;;;;;;11.13;8.60;;;;;;;;;;5111932;28;20202;-79
2023/04/04 07:02:45;;;;;;;11.10;8.53;;;;;;;;;;5097990;28;20706;-79
2023/04/04 07:05:13;;;;;;;10.37;8.87;;;;;;;;;;5112405;27;20205;-79
2023/04/04 07:07:40;;;;;;;17.77;14.87;;;;;;;;;;5111649;28;20193;-80
2023/04/04 07:10:07;;;;;;;11.17;9.97;;;;;;;;;;5109724;27;20214;-80
2023/04/04 07:12:35;;;;;;;11.97;8.67;;;;;;;;;;5123404;27;20225;-80
2023/04/04 07:15:03;;;;;;;433.70;349.33;;;;;;;;;;5111322;28;20314;-80
2023/04/04 07:17:31;;;;;;;31.40;28.37;;;;;;;;;;5111029;28;20205;-80
2023/04/04 07:19:58;;;;;;;8.73;7.80;;;;;;;;;;5111600;28;20186;-80
2023/04/04 07:22:25;;;;;;;8.98;7.25;;;;;;;;;;5110757;28;20309;-80
2023/04/04 07:24:53;;;;;;;8.90;6.95;;;;;;;;;;5110778;28;20280;-80
2023/04/04 07:27:20;;;;;;;9.18;7.13;;;;;;;;;;5111158;28;20225;-80
2023/04/04 07:29:47;;;;;;;7.47;6.60;;;;;;;;;;5111299;28;20298;-80
2023/04/04 07:32:16;;;;;;;9.40;6.85;;;;;;;;;;5111097;28;20202;-81
2023/04/04 07:34:44;;;;;;;8.30;6.65;;;;;;;;;;5111994;28;20194;-81
2023/04/04 07:37:11;;;;;;;14.30;12.90;;;;;;;;;;5111066;28;20678;-80
2023/04/04 07:39:39;;;;;;;8.05;7.25;;;;;;;;;;5112123;28;20619;-81
2023/04/04 07:42:06;;;;;;;55.28;49.72;;;;;;;;;;5111688;28;20293;-81
2023/04/04 07:44:33;;;;;;;8.70;7.82;;;;;;;;;;5111974;28;20633;-80
2023/04/04 07:47:00;;;;;;;8.57;7.45;;;;;;;;;;5111832;28;20658;-81
2023/04/04 07:49:29;;;;;;;30.95;27.85;;;;;;;;;;5111652;28;20310;-81
2023/04/04 07:51:56;;;;;;;8.00;6.45;;;;;;;;;;5110119;28;20717;-81
2023/04/04 07:54:23;;;;;;;8.07;6.22;;;;;;;;;;5113181;27;20741;-81
2023/04/04 07:56:50;;;;;;;6.53;5.85;;;;;;;;;;5115405;28;20193;-81
2023/04/04 07:59:18;;;;;;;7.13;6.20;;;;;;;;;;5111604;28;20225;-81
2023/04/04 08:01:45;;;;;;;6.95;6.07;;;;;;;;;;5111766;28;20229;-81
2023/04/04 08:04:12;;;;;;;8.10;7.30;;;;;;;;;;5111431;28;20250;-82
2023/04/04 08:06:41;;;;;;;6.70;4.70;;;;;;;;;;5112185;28;20280;-82
2023/04/04 08:09:08;;;;;;;8.90;8.02;;;;;;;;;;5111524;28;20579;-81
2023/04/04 08:11:35;;;;;;;5.35;4.65;;;;;;;;;;5112446;28;20620;-81
2023/04/04 08:14:03;;;;;;;9.77;7.63;;;;;;;;;;5111686;28;20228;-80
2023/04/04 08:16:31;;;;;;;6.65;5.80;;;;;;;;;;5111525;28;20194;-82
2023/04/04 08:18:59;;;;;;;6.15;4.78;;;;;;;;;;5112039;28;20197;-82
2023/04/04 08:21:26;;;;;;;6.25;5.20;;;;;;;;;;5111777;28;20197;-81
2023/04/04 08:23:55;;;;;;;5.00;4.43;;;;;;;;;;5111682;28;20245;-81
2023/04/04 08:26:22;;;;;;;9.82;7.60;;;;;;;;;;5111777;28;20197;-81
2023/04/04 08:28:50;;;;;;;10.93;9.63;;;;;;;;;;5111419;28;20301;-81
2023/04/04 08:31:17;;;;;;;16.60;14.93;;;;;;;;;;5111808;28;20566;-79
2023/04/04 08:33:44;;;;;;;8.55;6.22;;;;;;;;;;5115194;28;20194;-81
2023/04/04 08:36:12;;;;;;;6.25;5.57;;;;;;;;;;5116228;28;20284;-81
2023/04/04 08:38:39;;;;;;;33.90;30.38;;;;;;;;;;5115571;28;20562;-82
2023/04/04 08:41:08;;;;;;;28.85;25.98;;;;;;;;;;5115421;28;20640;-82
2023/04/04 08:43:36;;;;;;;18.90;16.90;;;;;;;;;;5114995;28;20237;-81
2023/04/04 08:46:04;;;;;;;5.85;3.17;;;;;;;;;;5115591;28;20182;-82
2023/04/04 08:48:32;;;;;;;4.60;3.58;;;;;;;;;;5115291;28;20277;-81
2023/04/04 08:51:00;;;;;;;4.25;3.28;;;;;;;;;;5115184;28;20288;-81
2023/04/04 08:53:28;;;;;;;4.72;3.30;;;;;;;;;;5115224;28;20198;-81
2023/04/04 08:55:56;;;;;;;6.22;3.33;;;;;;;;;;5115756;28;20258;-82
2023/04/04 08:58:26;;;;;;;3.58;2.88;;;;;;;;;;5115062;28;20197;-82
2023/04/04 09:00:53;;;;;;;3.50;3.20;;;;;;;;;;5115518;28;20200;-81
2023/04/04 09:03:22;;;;;;;4.28;2.60;;;;;;;;;;5114964;28;20271;-82
2023/04/04 09:05:49;;;;;;;4.20;3.10;;;;;;;;;;5114908;28;20225;-82
2023/04/04 09:08:17;;;;;;;3.20;2.70;;;;;;;;;;5114866;28;20680;-81
2023/04/04 09:10:44;;;;;;;3.00;2.72;;;;;;;;;;5115055;28;20294;-81
2023/04/04 09:13:12;;;;;;;4.20;3.25;;;;;;;;;;5114490;28;20747;-81
2023/04/04 09:15:42;;;;;;;5.97;5.18;;;;;;;;;;5114693;28;20194;-82
2023/04/04 09:18:09;;;;;;;4.13;3.10;;;;;;;;;;5114964;28;20590;-82
2023/04/04 09:20:38;;;;;;;7.20;4.53;;;;;;;;;;5114786;28;20284;-81
2023/04/04 09:23:08;;;;;;;4.53;3.47;;;;;;;;;;5114611;28;20775;-82
2023/04/04 09:25:36;;;;;;;3.80;3.40;;;;;;;;;;5114703;28;20284;-81
2023/04/04 09:28:04;;;;;;;4.32;3.10;;;;;;;;;;5114756;28;20204;-81
2023/04/04 09:30:33;;;;;;;4.00;3.20;;;;;;;;;;5114574;28;20197;-82
2023/04/04 09:33:06;;;;;;;4.40;3.55;;;;;;;;;;5114491;28;20552;-82
2023/04/04 09:35:34;;;;;;;4.72;3.42;;;;;;;;;;5114545;28;20572;-82
2023/04/04 09:38:01;;;;;;;4.55;3.35;;;;;;;;;;5114450;28;20217;-82
2023/04/04 09:40:29;;;;;;;4.57;3.53;;;;;;;;;;5114567;28;20678;-83
2023/04/04 09:43:00;;;;;;;5.82;5.22;;;;;;;;;;5113710;28;20594;-81
2023/04/04 09:45:28;;;;;;;5.32;3.42;;;;;;;;;;5113697;28;20289;-81
2023/04/04 09:47:56;;;;;;;5.78;4.38;;;;;;;;;;5114124;28;20238;-81
2023/04/04 09:50:27;;;;;;;5.80;5.30;;;;;;;;;;5113889;28;20242;-82
2023/04/04 09:52:56;;;;;;;5.50;3.90;;;;;;;;;;5114131;28;20201;-81
2023/04/04 09:55:31;;;;;;;18.42;16.52;;;;;;;;;;5114328;28;20217;-82
2023/04/04 09:58:01;;;;;;;14.43;10.90;;;;;;;;;;5113666;28;20841;-82
2023/04/04 10:00:29;;;;;;;15.52;13.95;;;;;;;;;;5114040;28;20237;-82
2023/04/04 10:02:57;;;;;;;5.90;4.70;;;;;;;;;;5114174;28;20201;-82
2023/04/04 10:05:26;;;;;;;3.83;3.33;;;;;;;;;;5113829;28;20198;-82
2023/04/04 10:07:53;;;;;;;6.10;3.60;;;;;;;;;;5113912;28;20545;-82
2023/04/04 10:10:21;;;;;;;4.15;3.00;;;;;;;;;;5113662;28;20213;-82
2023/04/04 10:12:48;;;;;;;4.45;3.00;;;;;;;;;;5113681;28;20243;-82
2023/04/04 10:15:16;;;;;;;5.50;3.10;;;;;;;;;;5113513;28;20225;-81
2023/04/04 10:17:44;;;;;;;4.82;3.25;;;;;;;;;;5113802;28;20197;-82
2023/04/04 10:20:12;;;;;;;4.35;3.10;;;;;;;;;;5113443;28;20250;-82
2023/04/04 10:22:41;;;;;;;4.90;3.00;;;;;;;;;;5113980;28;20575;-83
2023/04/04 10:25:09;;;;;;;4.90;3.60;;;;;;;;;;5113157;28;20275;-82
2023/04/04 10:27:37;;;;;;;4.88;2.90;;;;;;;;;;5113711;28;20220;-82
2023/04/04 10:30:05;;;;;;;6.50;3.20;;;;;;;;;;5113500;28;20193;-81
2023/04/04 10:32:36;;;;;;;3.75;2.88;;;;;;;;;;5113221;28;20288;-82
2023/04/04 10:35:04;;;;;;;4.15;2.95;;;;;;;;;;5113524;28;20193;-82
2023/04/04 10:37:35;;;;;;;4.30;3.17;;;;;;;;;;5113655;28;20221;-82
2023/04/04 10:40:06;;;;;;;4.13;3.08;;;;;;;;;;5112539;28;20200;-83
2023/04/04 10:42:38;;;;;;;4.68;2.85;;;;;;;;;;5112916;28;20693;-82
2023/04/04 10:45:08;;;;;;;4.55;3.30;;;;;;;;;;5113303;28;20324;-82
2023/04/04 10:47:36;;;;;;;4.03;3.00;;;;;;;;;;5112995;28;20241;-82
2023/04/04 10:50:05;;;;;;;3.28;2.72;;;;;;;;;;5113024;28;20247;-82
2023/04/04 10:52:32;;;;;;;4.25;3.15;;;;;;;;;;5113423;28;20202;-82
2023/04/04 10:55:01;;;;;;;4.05;3.00;;;;;;;;;;5112240;28;20296;-82
2023/04/04 10:57:30;;;;;;;5.15;3.08;;;;;;;;;;5112417;28;20193;-82
2023/04/04 10:59:57;;;;;;;4.22;2.85;;;;;;;;;;5112794;28;20285;-82
2023/04/04 11:02:43;;;;;;;3.70;2.72;;;;;;;;;;5112828;28;20835;-80
2023/04/04 11:05:13;;;;;;;6.25;3.20;;;;;;;;;;5099246;28;20225;-83
2023/04/04 11:07:41;;;;;;;3.97;3.00;;;;;;;;;;5112693;28;20722;-83
2023/04/04 11:10:15;;;;;;;3.65;2.63;;;;;;;;;;5112280;28;20268;-83
2023/04/04 11:12:46;;;;;;;5.13;2.90;;;;;;;;;;5112910;28;20194;-81
2023/04/04 11:15:15;;;;;;;3.90;3.00;;;;;;;;;;5112625;28;20202;-82
2023/04/04 11:17:43;;;;;;;6.28;3.00;;;;;;;;;;5112506;28;20273;-83
2023/04/04 11:20:10;;;;;;;4.85;3.20;;;;;;;;;;5112270;28;20202;-83
2023/04/04 11:22:37;;;;;;;3.78;2.95;;;;;;;;;;5112418;28;20284;-81
2023/04/04 11:25:20;;;;;;;7.18;3.33;;;;;;;;;;5112092;28;20221;-83
2023/04/04 11:27:50;;;;;;;6.07;3.25;;;;;;;;;;5109431;28;20201;-82
2023/04/04 11:30:18;;;;;;;5.88;3.90;;;;;;;;;;5112398;28;20306;-83
2023/04/04 11:32:48;;;;;;;3.97;2.97;;;;;;;;;;5112114;28;20198;-83
2023/04/04 11:35:15;;;;;;;4.88;3.10;;;;;;;;;;5112346;28;20292;-82
2023/04/04 11:37:59;;;;;;;6.25;3.28;;;;;;;;;;5111888;28;20221;-81
2023/04/04 11:40:34;;;;;;;4.82;2.70;;;;;;;;;;5112271;28;20189;-83
2023/04/04 11:43:08;;;;;;;4.93;3.15;;;;;;;;;;5112584;28;20621;-83
2023/04/04 11:45:36;;;;;;;4.88;3.30;;;;;;;;;;5112190;28;20611;-83
2023/04/04 11:48:04;;;;;;;5.65;3.17;;;;;;;;;;5111989;28;20234;-83
2023/04/04 11:50:35;;;;;;;3.60;3.25;;;;;;;;;;5111623;28;20200;-83
2023/04/04 11:53:05;;;;;;;5.07;3.28;;;;;;;;;;5112179;28;20178;-83
2023/04/04 11:55:32;;;;;;;4.32;3.40;;;;;;;;;;5111930;28;20296;-82
2023/04/04 11:58:08;;;;;;;3.40;3.10;;;;;;;;;;5112142;28;20285;-83
2023/04/04 12:00:37;;;;;;;3.40;2.88;;;;;;;;;;5112181;28;20293;-82
2023/04/04 12:03:05;;;;;;;4.85;3.40;;;;;;;;;;5112131;28;20236;-83
2023/04/04 12:05:33;;;;;;;4.88;3.13;;;;;;;;;;5111777;28;20682;-83
2023/04/04 12:08:01;;;;;;;6.22;3.30;;;;;;;;;;5111033;28;20582;-83
2023/04/04 12:10:30;;;;;;;4.47;3.05;;;;;;;;;;5111788;28;20194;-82
2023/04/04 12:12:58;;;;;;;4.53;3.58;;;;;;;;;;5111476;28;20659;-82
2023/04/04 12:15:32;;;;;;;3.53;3.17;;;;;;;;;;5111504;28;20766;-82
2023/04/04 12:17:59;;;;;;;5.10;3.70;;;;;;;;;;5111652;28;20312;-82
2023/04/04 12:20:26;;;;;;;4.63;3.45;;;;;;;;;;5112185;28;20293;-81
2023/04/04 12:22:53;;;;;;;5.72;3.50;;;;;;;;;;5111577;28;20221;-83
2023/04/04 12:25:21;;;;;;;4.68;3.15;;;;;;;;;;5111364;28;20312;-83
2023/04/04 12:27:49;;;;;;;5.57;3.45;;;;;;;;;;5112139;28;20218;-82
2023/04/04 12:30:17;;;;;;;4.85;3.60;;;;;;;;;;5111719;28;20198;-82
2023/04/04 12:32:46;;;;;;;5.15;3.30;;;;;;;;;;5111716;28;20276;-82
2023/04/04 12:35:14;;;;;;;5.22;3.50;;;;;;;;;;5111360;28;20197;-82
2023/04/04 12:37:55;;;;;;;5.00;3.38;;;;;;;;;;5111434;28;20204;-83
2023/04/04 12:40:22;;;;;;;4.68;3.50;;;;;;;;;;5111445;28;20196;-82
2023/04/04 12:42:49;;;;;;;7.20;5.43;;;;;;;;;;5111233;28;20293;-83
2023/04/04 12:45:21;;;;;;;6.78;4.10;;;;;;;;;;5111582;28;20257;-82
2023/04/04 12:47:53;;;;;;;6.38;4.00;;;;;;;;;;5111324;28;20675;-82
2023/04/04 12:50:21;;;;;;;5.03;3.70;;;;;;;;;;5111374;28;20642;-83
2023/04/04 12:52:51;;;;;;;4.95;3.80;;;;;;;;;;5111157;28;20198;-82
2023/04/04 12:55:20;;;;;;;4.63;3.42;;;;;;;;;;5111249;28;20202;-82
2023/04/04 12:57:47;;;;;;;10.75;3.45;;;;;;;;;;5111755;28;20230;-82
2023/04/04 13:00:15;;;;;;;5.60;3.55;;;;;;;;;;5111117;28;20284;-83
2023/04/04 13:02:45;;;;;;;4.82;3.60;;;;;;;;;;5111148;28;20189;-82
2023/04/04 13:05:15;;;;;;;5.20;4.00;;;;;;;;;;5110898;28;20326;-82
2023/04/04 13:07:42;;;;;;;4.88;3.65;;;;;;;;;;5111551;28;20222;-82
2023/04/04 13:10:10;;;;;;;3.88;3.03;;;;;;;;;;5111154;28;20655;-82
2023/04/04 13:12:55;;;;;;;4.28;3.22;;;;;;;;;;5111236;28;20877;-82
2023/04/04 13:15:23;;;;;;;4.18;2.97;;;;;;;;;;5111008;28;20201;-82
2023/04/04 13:17:51;;;;;;;6.13;3.45;;;;;;;;;;5111542;28;20190;-83
2023/04/04 13:20:21;;;;;;;4.32;3.33;;;;;;;;;;5113449;28;20198;-83
2023/04/04 13:22:48;;;;;;;4.53;3.40;;;;;;;;;;5115247;28;20198;-83
2023/04/04 13:25:15;;;;;;;7.40;3.65;;;;;;;;;;5114514;28;20225;-83
2023/04/04 13:27:43;;;;;;;4.97;3.50;;;;;;;;;;5114868;28;20289;-82
2023/04/04 13:30:10;;;;;;;4.03;3.15;;;;;;;;;;5114409;28;20290;-83
2023/04/04 13:32:38;;;;;;;5.55;3.65;;;;;;;;;;5114596;28;20204;-82
2023/04/04 13:35:05;;;;;;;6.50;3.15;;;;;;;;;;5114505;28;20285;-83
2023/04/04 13:37:34;;;;;;;3.78;3.28;;;;;;;;;;5114650;28;20226;-83
2023/04/04 13:40:01;;;;;;;6.45;3.13;;;;;;;;;;5114250;28;20284;-82
2023/04/04 13:42:30;;;;;;;4.25;3.40;;;;;;;;;;5114080;28;20285;-82
2023/04/04 13:44:57;;;;;;;4.13;3.13;;;;;;;;;;5114761;28;20321;-81
2023/04/04 13:47:26;;;;;;;4.40;3.08;;;;;;;;;;5114129;28;20324;-83
2023/04/04 13:49:54;;;;;;;5.13;3.63;;;;;;;;;;5114053;28;20201;-82
2023/04/04 13:52:22;;;;;;;4.55;3.60;;;;;;;;;;5113968;28;20654;-83
2023/04/04 13:54:50;;;;;;;4.30;3.28;;;;;;;;;;5114083;28;20202;-82
2023/04/04 13:57:18;;;;;;;6.60;3.60;;;;;;;;;;5113702;28;20194;-83
2023/04/04 13:59:45;;;;;;;4.38;2.90;;;;;;;;;;5114472;28;20228;-82
2023/04/04 14:02:12;;;;;;;4.43;2.80;;;;;;;;;;5113485;28;20201;-82
2023/04/04 14:04:39;;;;;;;3.40;2.67;;;;;;;;;;5113967;28;20324;-82
2023/04/04 14:07:07;;;;;;;4.57;2.95;;;;;;;;;;5113941;28;20204;-82
2023/04/04 14:09:34;;;;;;;5.10;3.13;;;;;;;;;;5114157;28;20286;-83
2023/04/04 14:12:02;;;;;;;3.67;2.63;;;;;;;;;;5113666;28;20289;-83
2023/04/04 14:14:29;;;;;;;3.45;2.85;;;;;;;;;;5113766;28;20209;-83
2023/04/04 14:16:57;;;;;;;5.43;3.20;;;;;;;;;;5113552;28;20197;-82
2023/04/04 14:19:24;;;;;;;4.68;2.72;;;;;;;;;;5113746;28;20288;-83
2023/04/04 14:21:51;;;;;;;4.43;3.00;;;;;;;;;;5113710;28;20285;-83
2023/04/04 14:24:18;;;;;;;3.78;2.90;;;;;;;;;;5113483;28;20670;-83
2023/04/04 14:26:45;;;;;;;7.55;3.72;;;;;;;;;;5113304;28;20285;-82
2023/04/04 14:29:14;;;;;;;4.13;3.17;;;;;;;;;;5112737;28;20193;-82
2023/04/04 14:31:42;;;;;;;6.70;3.78;;;;;;;;;;5113385;28;20201;-83
2023/04/04 14:34:09;;;;;;;5.32;3.72;;;;;;;;;;5113267;28;20272;-83
2023/04/04 14:36:36;;;;;;;4.35;3.75;;;;;;;;;;5113208;28;20194;-83
2023/04/04 14:39:03;;;;;;;4.57;3.55;;;;;;;;;;5113369;28;20288;-83